Time;durP1;ratioP1;P1;durP2;ratioP2;P2;SDS_P1;SDS_P2;PMS_P1;PMS_P2;Temp;Humidity;BMP_temperature;BMP_pressure;BME280_temperature;BME280_humidity;BME280_pressure;Samples;Min_cycle;Max_cycle;Signal;HPM_P1;HPM_P2
2021/04/10 00:02:25;;;;;;;11.50;2.97;;;;;;;;;;4331360;33;20211;-73
2021/04/10 00:04:50;;;;;;;10.10;3.17;;;;;;;;;;4332355;33;20530;-74
2021/04/10 00:07:15;;;;;;;9.10;3.30;;;;;;;;;;4331858;33;20179;-74
2021/04/10 00:09:41;;;;;;;6.63;2.83;;;;;;;;;;4331927;33;20192;-73
2021/04/10 00:12:06;;;;;;;12.47;3.53;;;;;;;;;;4331727;33;20136;-75
2021/04/10 00:14:32;;;;;;;8.97;3.00;;;;;;;;;;4330208;33;20199;-75
2021/04/10 00:16:57;;;;;;;5.30;3.00;;;;;;;;;;4331292;33;20160;-74
2021/04/10 00:19:22;;;;;;;8.67;3.23;;;;;;;;;;4331600;33;20571;-74
2021/04/10 00:21:47;;;;;;;8.37;3.33;;;;;;;;;;4331467;33;20173;-74
2021/04/10 00:24:12;;;;;;;11.43;3.20;;;;;;;;;;4330398;33;20607;-74
2021/04/10 00:26:38;;;;;;;12.53;3.37;;;;;;;;;;4331194;33;20148;-74
2021/04/10 00:29:03;;;;;;;6.43;3.50;;;;;;;;;;4331618;33;20136;-74
2021/04/10 00:31:28;;;;;;;12.33;3.60;;;;;;;;;;4331012;33;20530;-74
2021/04/10 00:33:53;;;;;;;9.23;3.23;;;;;;;;;;4331429;33;20470;-75
2021/04/10 00:36:19;;;;;;;14.83;4.00;;;;;;;;;;4330977;33;20199;-72
2021/04/10 00:38:44;;;;;;;13.77;3.20;;;;;;;;;;4329546;33;20168;-75
2021/04/10 00:41:11;;;;;;;8.70;3.07;;;;;;;;;;4330931;33;20169;-75
2021/04/10 00:43:36;;;;;;;8.23;2.70;;;;;;;;;;4330968;33;20148;-73
2021/04/10 00:46:01;;;;;;;7.20;3.00;;;;;;;;;;4331220;33;20191;-74
2021/04/10 00:48:27;;;;;;;9.77;2.90;;;;;;;;;;4330968;33;20591;-74
2021/04/10 00:50:53;;;;;;;7.83;2.47;;;;;;;;;;4330541;33;20520;-74
2021/04/10 00:53:19;;;;;;;8.07;2.60;;;;;;;;;;4331028;33;20202;-73
2021/04/10 00:55:45;;;;;;;5.53;2.53;;;;;;;;;;4331100;33;20241;-73
2021/04/10 00:58:11;;;;;;;11.80;3.10;;;;;;;;;;4330930;33;20588;-73
2021/04/10 01:00:36;;;;;;;8.40;2.90;;;;;;;;;;4330534;33;20139;-73
2021/04/10 01:03:03;;;;;;;8.07;2.83;;;;;;;;;;4330535;33;20195;-73
2021/04/10 01:05:28;;;;;;;9.37;2.90;;;;;;;;;;4331266;33;20556;-73
2021/04/10 01:07:53;;;;;;;9.07;2.93;;;;;;;;;;4331416;33;20144;-73
2021/04/10 01:10:18;;;;;;;7.63;2.80;;;;;;;;;;4330651;33;20139;-73
2021/04/10 01:12:47;;;;;;;6.47;2.27;;;;;;;;;;4330546;33;20156;-73
2021/04/10 01:15:31;;;;;;;11.10;3.03;;;;;;;;;;4329434;33;20195;-73
2021/04/10 01:18:00;;;;;;;10.17;3.17;;;;;;;;;;4330917;33;20177;-73
2021/04/10 01:20:43;;;;;;;10.40;3.40;;;;;;;;;;4331028;33;20156;-73
2021/04/10 01:23:28;;;;;;;7.20;3.27;;;;;;;;;;4330655;33;20167;-73
2021/04/10 01:25:59;;;;;;;8.80;2.90;;;;;;;;;;4331070;33;20177;-73
2021/04/10 01:28:43;;;;;;;11.80;3.33;;;;;;;;;;4330946;33;20175;-73
2021/04/10 01:31:09;;;;;;;11.67;3.30;;;;;;;;;;4330750;33;20148;-73
2021/04/10 01:33:38;;;;;;;11.70;2.60;;;;;;;;;;4329526;33;20175;-74
2021/04/10 01:36:04;;;;;;;9.13;3.03;;;;;;;;;;4330676;33;20144;-73
2021/04/10 01:38:31;;;;;;;12.70;2.90;;;;;;;;;;4330445;33;20144;-74
2021/04/10 01:41:01;;;;;;;11.50;3.00;;;;;;;;;;4331102;33;20202;-73
2021/04/10 01:43:28;;;;;;;8.83;2.97;;;;;;;;;;4330708;33;20195;-73
2021/04/10 01:45:55;;;;;;;9.47;2.87;;;;;;;;;;4330622;33;20148;-73
2021/04/10 01:48:21;;;;;;;15.07;3.00;;;;;;;;;;4330495;33;20148;-73
2021/04/10 01:50:48;;;;;;;14.13;2.83;;;;;;;;;;4330525;33;20151;-73
2021/04/10 01:53:13;;;;;;;6.57;2.50;;;;;;;;;;4331223;33;20136;-74
2021/04/10 01:55:39;;;;;;;11.43;2.63;;;;;;;;;;4330941;33;20167;-74
2021/04/10 01:58:05;;;;;;;9.53;2.40;;;;;;;;;;4333638;33;20171;-73
2021/04/10 02:00:33;;;;;;;12.40;2.97;;;;;;;;;;4333091;33;20206;-73
2021/04/10 02:03:00;;;;;;;8.53;2.67;;;;;;;;;;4333890;33;20183;-73
2021/04/10 02:05:26;;;;;;;11.93;2.57;;;;;;;;;;4333271;33;20210;-73
2021/04/10 02:07:51;;;;;;;10.63;2.70;;;;;;;;;;4334028;33;20143;-72
2021/04/10 02:10:18;;;;;;;8.57;2.50;;;;;;;;;;4332897;33;20156;-73
2021/04/10 02:12:44;;;;;;;10.67;2.20;;;;;;;;;;4333508;33;20144;-73
2021/04/10 02:15:10;;;;;;;7.43;2.20;;;;;;;;;;4333378;33;20144;-73
2021/04/10 02:17:36;;;;;;;8.93;2.23;;;;;;;;;;4333371;33;20167;-73
2021/04/10 02:20:03;;;;;;;12.10;2.43;;;;;;;;;;4332563;33;20182;-73
2021/04/10 02:22:33;;;;;;;9.43;2.53;;;;;;;;;;4333308;33;20472;-72
2021/04/10 02:24:58;;;;;;;10.33;2.20;;;;;;;;;;4333182;33;20557;-73
2021/04/10 02:27:24;;;;;;;11.73;2.50;;;;;;;;;;4333553;33;20167;-73
2021/04/10 02:29:49;;;;;;;13.47;2.60;;;;;;;;;;4333117;33;20165;-73
2021/04/10 02:32:22;;;;;;;11.33;2.70;;;;;;;;;;4333042;33;20208;-73
2021/04/10 02:35:13;;;;;;;9.60;2.47;;;;;;;;;;4333403;33;20140;-73
2021/04/10 02:37:39;;;;;;;8.13;2.20;;;;;;;;;;4320900;33;20534;-72
2021/04/10 02:40:06;;;;;;;8.17;2.53;;;;;;;;;;4331638;33;20581;-73
2021/04/10 02:42:32;;;;;;;13.37;2.50;;;;;;;;;;4332794;33;20195;-73
2021/04/10 02:44:59;;;;;;;11.37;2.97;;;;;;;;;;4333526;33;20195;-73
2021/04/10 02:47:26;;;;;;;8.87;3.03;;;;;;;;;;4332885;33;20139;-73
2021/04/10 02:49:53;;;;;;;14.40;2.77;;;;;;;;;;4332350;33;20209;-73
2021/04/10 02:52:28;;;;;;;9.93;2.60;;;;;;;;;;4332967;33;20148;-73
2021/04/10 02:54:54;;;;;;;12.40;2.90;;;;;;;;;;4332174;33;20190;-73
2021/04/10 02:57:19;;;;;;;9.37;2.57;;;;;;;;;;4332258;33;20534;-73
2021/04/10 02:59:45;;;;;;;8.80;2.60;;;;;;;;;;4332989;33;20199;-73
2021/04/10 03:02:11;;;;;;;9.40;3.20;;;;;;;;;;4332258;33;20149;-73
2021/04/10 03:04:37;;;;;;;12.90;3.23;;;;;;;;;;4332446;33;20228;-73
2021/04/10 03:07:04;;;;;;;9.03;3.20;;;;;;;;;;4331836;33;20197;-73
2021/04/10 03:09:30;;;;;;;15.73;3.37;;;;;;;;;;4332607;33;20139;-73
2021/04/10 03:11:55;;;;;;;10.23;2.80;;;;;;;;;;4332857;33;20454;-73
2021/04/10 03:14:21;;;;;;;12.10;3.17;;;;;;;;;;4332532;33;20140;-73
2021/04/10 03:16:47;;;;;;;10.40;3.50;;;;;;;;;;4332080;33;20210;-73
2021/04/10 03:19:13;;;;;;;8.93;2.57;;;;;;;;;;4332004;33;20183;-73
2021/04/10 03:21:39;;;;;;;10.63;2.90;;;;;;;;;;4332076;33;20187;-73
2021/04/10 03:24:04;;;;;;;13.60;3.37;;;;;;;;;;4332085;33;20558;-73
2021/04/10 03:26:30;;;;;;;6.47;2.77;;;;;;;;;;4332396;33;20171;-73
2021/04/10 03:28:56;;;;;;;10.53;2.87;;;;;;;;;;4332318;33;20147;-73
2021/04/10 03:31:21;;;;;;;8.27;2.93;;;;;;;;;;4332491;33;20147;-73
2021/04/10 03:33:46;;;;;;;9.90;2.33;;;;;;;;;;4332029;33;20163;-73
2021/04/10 03:36:12;;;;;;;12.57;2.80;;;;;;;;;;4331962;33;20203;-72
2021/04/10 03:38:40;;;;;;;10.90;2.77;;;;;;;;;;4330106;33;20186;-74
2021/04/10 03:41:08;;;;;;;11.20;2.30;;;;;;;;;;4331281;33;20175;-74
2021/04/10 03:43:34;;;;;;;8.90;2.47;;;;;;;;;;4331657;33;20132;-74
2021/04/10 03:46:01;;;;;;;7.17;2.47;;;;;;;;;;4332093;33;20132;-73
2021/04/10 03:48:29;;;;;;;9.60;2.13;;;;;;;;;;4331737;33;20534;-73
2021/04/10 03:50:55;;;;;;;6.87;2.30;;;;;;;;;;4331498;33;20163;-73
2021/04/10 03:53:20;;;;;;;5.70;2.10;;;;;;;;;;4332456;33;20136;-73
2021/04/10 03:55:46;;;;;;;9.97;2.30;;;;;;;;;;4331291;33;20164;-74
2021/04/10 03:58:11;;;;;;;8.73;2.33;;;;;;;;;;4330478;33;20171;-73
2021/04/10 04:00:45;;;;;;;9.13;2.17;;;;;;;;;;4331360;33;20136;-73
2021/04/10 04:03:11;;;;;;;8.07;1.80;;;;;;;;;;4332465;33;20139;-72
2021/04/10 04:05:36;;;;;;;8.97;2.00;;;;;;;;;;4318096;33;20163;-74
2021/04/10 04:08:01;;;;;;;7.93;1.80;;;;;;;;;;4330145;33;20168;-74
2021/04/10 04:10:27;;;;;;;4.63;1.53;;;;;;;;;;4331733;33;20203;-74
2021/04/10 04:12:52;;;;;;;9.03;1.70;;;;;;;;;;4332019;33;20217;-73
2021/04/10 04:15:17;;;;;;;6.30;1.43;;;;;;;;;;4331172;33;20227;-73
2021/04/10 04:17:42;;;;;;;7.30;1.73;;;;;;;;;;4331799;33;20148;-73
2021/04/10 04:20:08;;;;;;;8.27;2.00;;;;;;;;;;4317547;33;20578;-73
2021/04/10 04:22:33;;;;;;;5.80;1.63;;;;;;;;;;4331342;33;20144;-73
2021/04/10 04:24:58;;;;;;;7.70;1.90;;;;;;;;;;4331906;33;20216;-73
2021/04/10 04:27:24;;;;;;;7.00;1.90;;;;;;;;;;4331329;33;20553;-73
2021/04/10 04:29:54;;;;;;;7.03;1.73;;;;;;;;;;4331680;33;20186;-74
2021/04/10 04:32:20;;;;;;;10.93;1.57;;;;;;;;;;4317552;33;20656;-74
2021/04/10 04:34:45;;;;;;;5.83;1.37;;;;;;;;;;4331215;33;20215;-74
2021/04/10 04:37:10;;;;;;;11.20;1.80;;;;;;;;;;4331529;33;20413;-73
2021/04/10 04:39:36;;;;;;;7.33;1.80;;;;;;;;;;4330821;33;20171;-73
2021/04/10 04:42:01;;;;;;;9.20;2.40;;;;;;;;;;4331119;33;20162;-73
2021/04/10 04:44:27;;;;;;;13.57;2.00;;;;;;;;;;4331142;33;20140;-72
2021/04/10 04:46:52;;;;;;;9.37;1.70;;;;;;;;;;4330967;33;20201;-73
2021/04/10 04:49:17;;;;;;;7.20;2.00;;;;;;;;;;4330873;33;20186;-73
2021/04/10 04:51:43;;;;;;;9.57;1.93;;;;;;;;;;4329619;33;20655;-73
2021/04/10 04:54:08;;;;;;;10.47;1.73;;;;;;;;;;4331452;33;20140;-73
2021/04/10 04:56:33;;;;;;;5.20;1.80;;;;;;;;;;4330937;33;20258;-73
2021/04/10 04:58:59;;;;;;;6.87;2.20;;;;;;;;;;4330842;33;20156;-73
2021/04/10 05:01:24;;;;;;;9.43;2.23;;;;;;;;;;4330733;33;20283;-73
2021/04/10 05:03:49;;;;;;;4.60;2.10;;;;;;;;;;4331691;33;20132;-73
2021/04/10 05:06:14;;;;;;;17.33;2.30;;;;;;;;;;4331516;33;20163;-73
2021/04/10 05:08:40;;;;;;;7.83;2.30;;;;;;;;;;4331054;33;20148;-72
2021/04/10 05:11:05;;;;;;;9.30;2.00;;;;;;;;;;4330752;33;20162;-73
2021/04/10 05:13:30;;;;;;;6.53;1.97;;;;;;;;;;4330864;33;20251;-73
2021/04/10 05:15:56;;;;;;;6.87;2.20;;;;;;;;;;4329824;33;20162;-73
2021/04/10 05:18:21;;;;;;;8.13;2.17;;;;;;;;;;4319582;33;20183;-73
2021/04/10 05:20:46;;;;;;;7.07;2.10;;;;;;;;;;4330656;33;20140;-73
2021/04/10 05:23:13;;;;;;;7.83;2.10;;;;;;;;;;4330818;33;20226;-73
2021/04/10 05:25:38;;;;;;;9.23;2.10;;;;;;;;;;4330530;33;20189;-74
2021/04/10 05:28:03;;;;;;;6.80;1.93;;;;;;;;;;4330754;33;20148;-74
2021/04/10 05:30:28;;;;;;;7.07;2.00;;;;;;;;;;4331002;33;20591;-73
2021/04/10 05:32:54;;;;;;;6.60;2.37;;;;;;;;;;4330837;33;20181;-73
2021/04/10 05:35:19;;;;;;;6.73;1.70;;;;;;;;;;4331522;33;20132;-72
2021/04/10 05:37:44;;;;;;;11.03;2.20;;;;;;;;;;4328974;33;20264;-73
2021/04/10 05:40:10;;;;;;;10.47;2.17;;;;;;;;;;4331096;33;20140;-74
2021/04/10 05:42:35;;;;;;;9.00;2.30;;;;;;;;;;4330641;33;20136;-74
2021/04/10 05:45:00;;;;;;;7.20;2.00;;;;;;;;;;4328955;33;20528;-74
2021/04/10 05:47:26;;;;;;;4.83;1.90;;;;;;;;;;4330654;33;20152;-73
2021/04/10 05:49:51;;;;;;;6.27;1.87;;;;;;;;;;4330550;33;20144;-74
2021/04/10 05:52:17;;;;;;;6.20;1.80;;;;;;;;;;4330415;33;20195;-73
2021/04/10 05:54:42;;;;;;;7.87;1.83;;;;;;;;;;4330022;33;20163;-74
2021/04/10 05:57:07;;;;;;;6.03;2.03;;;;;;;;;;4329122;33;20230;-74
2021/04/10 05:59:32;;;;;;;6.00;1.93;;;;;;;;;;4331775;33;20201;-72
2021/04/10 06:01:57;;;;;;;6.70;2.00;;;;;;;;;;4330435;33;20236;-73
2021/04/10 06:04:23;;;;;;;7.53;1.87;;;;;;;;;;4330929;33;20190;-73
2021/04/10 06:06:48;;;;;;;6.77;1.70;;;;;;;;;;4329961;33;20315;-73
2021/04/10 06:09:13;;;;;;;9.97;1.70;;;;;;;;;;4330354;33;20582;-73
2021/04/10 06:11:39;;;;;;;9.20;1.90;;;;;;;;;;4330914;33;20178;-73
2021/04/10 06:14:04;;;;;;;6.17;1.90;;;;;;;;;;4329923;33;20167;-73
2021/04/10 06:16:29;;;;;;;8.63;2.00;;;;;;;;;;4330096;33;20144;-74
2021/04/10 06:18:54;;;;;;;7.63;2.30;;;;;;;;;;4329765;33;20164;-74
2021/04/10 06:21:20;;;;;;;6.50;1.87;;;;;;;;;;4329334;33;20581;-73
2021/04/10 06:23:46;;;;;;;10.33;2.13;;;;;;;;;;4330189;33;20136;-73
2021/04/10 06:26:12;;;;;;;10.07;2.20;;;;;;;;;;4328941;33;20163;-73
2021/04/10 06:28:37;;;;;;;9.10;2.33;;;;;;;;;;4330314;33;20489;-72
2021/04/10 06:31:03;;;;;;;7.47;2.20;;;;;;;;;;4330784;33;20131;-75
2021/04/10 06:33:28;;;;;;;8.47;1.97;;;;;;;;;;4330322;33;20148;-73
2021/04/10 06:35:53;;;;;;;5.63;2.10;;;;;;;;;;4329856;33;20519;-72
2021/04/10 06:38:19;;;;;;;7.73;1.70;;;;;;;;;;4329986;33;20490;-73
2021/04/10 06:40:44;;;;;;;7.83;2.10;;;;;;;;;;4330618;33;20167;-73
2021/04/10 06:43:10;;;;;;;11.40;2.47;;;;;;;;;;4331466;33;20524;-73
2021/04/10 06:45:35;;;;;;;6.33;2.10;;;;;;;;;;4332987;33;20424;-73
2021/04/10 06:48:02;;;;;;;7.93;2.10;;;;;;;;;;4332610;33;20132;-71
2021/04/10 06:50:28;;;;;;;7.67;2.00;;;;;;;;;;4333496;33;20148;-72
2021/04/10 06:52:55;;;;;;;10.83;2.30;;;;;;;;;;4332596;33;20568;-72
2021/04/10 06:55:22;;;;;;;6.57;2.10;;;;;;;;;;4332315;33;20160;-74
2021/04/10 06:58:00;;;;;;;8.53;2.03;;;;;;;;;;4332542;33;20144;-73
2021/04/10 07:00:26;;;;;;;5.83;2.40;;;;;;;;;;4332636;33;20202;-74
2021/04/10 07:02:52;;;;;;;8.70;2.57;;;;;;;;;;4332407;33;20561;-74
2021/04/10 07:05:17;;;;;;;8.00;2.23;;;;;;;;;;4329158;33;20174;-72
2021/04/10 07:07:43;;;;;;;7.03;2.07;;;;;;;;;;4331620;33;20199;-73
2021/04/10 07:10:09;;;;;;;8.03;2.60;;;;;;;;;;4331866;33;20139;-72
2021/04/10 07:12:36;;;;;;;10.83;2.70;;;;;;;;;;4332261;33;20174;-73
2021/04/10 07:15:01;;;;;;;7.20;2.70;;;;;;;;;;4332382;33;20507;-74
2021/04/10 07:17:26;;;;;;;8.33;2.43;;;;;;;;;;4327730;33;20164;-73
2021/04/10 07:19:52;;;;;;;8.93;2.70;;;;;;;;;;4329075;33;20227;-73
2021/04/10 07:22:17;;;;;;;6.83;2.67;;;;;;;;;;4330257;33;20182;-71
2021/04/10 07:24:45;;;;;;;13.07;2.73;;;;;;;;;;4331743;33;20183;-70
2021/04/10 07:27:21;;;;;;;9.20;2.23;;;;;;;;;;4330984;33;20164;-73
2021/04/10 07:29:47;;;;;;;7.53;2.77;;;;;;;;;;4331037;33;20182;-71
2021/04/10 07:32:26;;;;;;;11.07;2.50;;;;;;;;;;4331631;33;20206;-71
2021/04/10 07:34:51;;;;;;;9.33;2.60;;;;;;;;;;4331993;33;20163;-70
2021/04/10 07:37:30;;;;;;;9.17;2.10;;;;;;;;;;4332345;33;20431;-70
2021/04/10 07:40:18;;;;;;;6.40;2.50;;;;;;;;;;4331698;33;20631;-69
2021/04/10 07:42:44;;;;;;;9.80;2.63;;;;;;;;;;4332240;33;20194;-70
2021/04/10 07:45:25;;;;;;;6.77;2.30;;;;;;;;;;4331481;33;20144;-69
2021/04/10 07:47:51;;;;;;;8.07;3.00;;;;;;;;;;4331576;33;20167;-70
2021/04/10 07:50:16;;;;;;;10.67;2.73;;;;;;;;;;4331702;33;20155;-70
2021/04/10 07:52:42;;;;;;;8.10;2.87;;;;;;;;;;4329181;33;20211;-70
2021/04/10 07:55:08;;;;;;;7.43;2.37;;;;;;;;;;4331572;33;20187;-69
2021/04/10 07:57:33;;;;;;;8.77;2.53;;;;;;;;;;4330292;33;20191;-72
2021/04/10 08:00:00;;;;;;;12.77;2.57;;;;;;;;;;4331434;33;20140;-71
2021/04/10 08:02:32;;;;;;;8.43;2.47;;;;;;;;;;4330963;33;20566;-70
2021/04/10 08:04:58;;;;;;;10.57;2.70;;;;;;;;;;4332160;33;20632;-71
2021/04/10 08:07:36;;;;;;;8.83;2.50;;;;;;;;;;4330890;33;20156;-72
2021/04/10 08:10:06;;;;;;;6.60;2.53;;;;;;;;;;4330109;33;20464;-71
2021/04/10 08:12:38;;;;;;;6.55;2.35;;;;;;;;;;4330798;33;20179;-73
2021/04/10 08:15:05;;;;;;;7.17;2.33;;;;;;;;;;4331125;33;20166;-72
2021/04/10 08:17:35;;;;;;;8.23;2.40;;;;;;;;;;4330910;33;20148;-72
2021/04/10 08:20:36;;;;;;;5.27;2.50;;;;;;;;;;4331140;33;20206;-73
2021/04/10 08:23:21;;;;;;;6.90;2.20;;;;;;;;;;4299914;33;20165;-71
2021/04/10 08:25:46;;;;;;;11.23;2.37;;;;;;;;;;4328776;33;20147;-72
2021/04/10 08:28:11;;;;;;;12.20;2.50;;;;;;;;;;4331169;33;20136;-71
2021/04/10 08:30:37;;;;;;;9.07;2.97;;;;;;;;;;4331026;33;20174;-72
2021/04/10 08:33:02;;;;;;;6.27;2.27;;;;;;;;;;4330856;33;20180;-73
2021/04/10 08:35:30;;;;;;;6.00;2.20;;;;;;;;;;4331235;33;20537;-70
2021/04/10 08:37:59;;;;;;;5.83;2.07;;;;;;;;;;4330975;33;20156;-71
2021/04/10 08:40:34;;;;;;;8.17;2.10;;;;;;;;;;4330961;33;20139;-71
2021/04/10 08:42:59;;;;;;;6.83;2.53;;;;;;;;;;4330936;33;20147;-72
2021/04/10 08:45:29;;;;;;;5.17;2.10;;;;;;;;;;4331123;33;20175;-71
2021/04/10 08:47:54;;;;;;;6.33;1.80;;;;;;;;;;4330774;33;20148;-69
2021/04/10 08:50:20;;;;;;;6.90;1.87;;;;;;;;;;4330811;33;20572;-69
2021/04/10 08:52:46;;;;;;;10.40;2.30;;;;;;;;;;4316487;33;20214;-71
2021/04/10 08:55:12;;;;;;;5.33;1.83;;;;;;;;;;4330446;33;20167;-70
2021/04/10 08:57:50;;;;;;;5.63;2.00;;;;;;;;;;4330396;33;20148;-71
2021/04/10 09:00:17;;;;;;;5.20;1.80;;;;;;;;;;4330659;33;20157;-72
2021/04/10 09:02:51;;;;;;;5.37;2.20;;;;;;;;;;4330836;33;20140;-72
2021/04/10 09:05:17;;;;;;;7.20;2.37;;;;;;;;;;4330487;33;20131;-72
2021/04/10 09:07:49;;;;;;;8.57;2.20;;;;;;;;;;4330126;33;20249;-73
2021/04/10 09:10:23;;;;;;;5.90;2.00;;;;;;;;;;4329082;33;20163;-72
2021/04/10 09:12:48;;;;;;;7.27;2.20;;;;;;;;;;4330815;33;20199;-71
2021/04/10 09:15:17;;;;;;;8.73;2.50;;;;;;;;;;4329017;33;20163;-69
2021/04/10 09:18:15;;;;;;;10.60;2.47;;;;;;;;;;4330473;33;20198;-72
2021/04/10 09:20:48;;;;;;;7.77;2.10;;;;;;;;;;4330864;33;20162;-71
2021/04/10 09:23:29;;;;;;;8.97;2.17;;;;;;;;;;4330219;33;20234;-71
2021/04/10 09:26:06;;;;;;;7.00;2.00;;;;;;;;;;4330124;33;20143;-68
2021/04/10 09:28:33;;;;;;;6.97;2.63;;;;;;;;;;4330469;33;20140;-71
2021/04/10 09:31:24;;;;;;;7.40;1.90;;;;;;;;;;4330175;33;20485;-73
2021/04/10 09:33:49;;;;;;;8.13;2.60;;;;;;;;;;4330202;33;20164;-74
2021/04/10 09:36:34;;;;;;;8.83;2.43;;;;;;;;;;4327781;33;20245;-74
2021/04/10 09:39:00;;;;;;;7.30;2.20;;;;;;;;;;4329855;33;20167;-73
2021/04/10 09:41:45;;;;;;;10.80;2.20;;;;;;;;;;4329766;33;20182;-71
2021/04/10 09:44:10;;;;;;;7.17;2.10;;;;;;;;;;4330449;33;20148;-71
2021/04/10 09:46:36;;;;;;;5.77;2.07;;;;;;;;;;4330854;33;20162;-70
2021/04/10 09:49:04;;;;;;;8.07;2.17;;;;;;;;;;4330302;33;20498;-71
2021/04/10 09:51:39;;;;;;;7.23;2.47;;;;;;;;;;4330276;33;20139;-72
2021/04/10 09:54:05;;;;;;;6.80;2.05;;;;;;;;;;4330170;33;20131;-74
2021/04/10 09:56:31;;;;;;;7.30;1.97;;;;;;;;;;4329937;33;20589;-72
2021/04/10 09:58:56;;;;;;;6.53;2.03;;;;;;;;;;4330347;33;20167;-73
2021/04/10 10:01:25;;;;;;;5.80;2.13;;;;;;;;;;4330505;33;20136;-72
2021/04/10 10:03:51;;;;;;;7.70;2.83;;;;;;;;;;4316833;33;20590;-72
2021/04/10 10:06:17;;;;;;;9.80;3.12;;;;;;;;;;4330212;33;20140;-69
2021/04/10 10:08:44;;;;;;;7.55;2.72;;;;;;;;;;4330022;33;20144;-73
2021/04/10 10:11:09;;;;;;;11.07;3.30;;;;;;;;;;4329205;33;20163;-72
2021/04/10 10:13:35;;;;;;;7.68;2.15;;;;;;;;;;4329786;33;20187;-70
2021/04/10 10:16:03;;;;;;;8.40;2.92;;;;;;;;;;4329310;33;20570;-74
2021/04/10 10:18:33;;;;;;;8.43;2.87;;;;;;;;;;4317823;33;20242;-74
2021/04/10 10:21:00;;;;;;;6.03;2.00;;;;;;;;;;4332183;33;20278;-74
2021/04/10 10:23:26;;;;;;;8.83;3.00;;;;;;;;;;4332431;33;20550;-73
2021/04/10 10:25:52;;;;;;;7.90;2.17;;;;;;;;;;4332396;33;20147;-72
2021/04/10 10:28:18;;;;;;;7.32;2.15;;;;;;;;;;4331413;33;20198;-72
2021/04/10 10:30:43;;;;;;;6.37;2.40;;;;;;;;;;4332745;33;20237;-74
2021/04/10 10:33:09;;;;;;;7.57;2.20;;;;;;;;;;4332622;33;20163;-72
2021/04/10 10:35:43;;;;;;;8.93;2.47;;;;;;;;;;4332506;33;20155;-71
2021/04/10 10:38:12;;;;;;;8.50;2.00;;;;;;;;;;4333006;33;20219;-73
2021/04/10 10:40:37;;;;;;;6.93;2.17;;;;;;;;;;4332975;33;20225;-73
2021/04/10 10:43:09;;;;;;;11.13;2.60;;;;;;;;;;4331981;33;20798;-71
2021/04/10 10:45:45;;;;;;;7.53;2.30;;;;;;;;;;4332295;33;20140;-72
2021/04/10 10:48:22;;;;;;;9.47;2.70;;;;;;;;;;4332486;33;20139;-73
2021/04/10 10:50:52;;;;;;;7.37;2.47;;;;;;;;;;4332186;33;20623;-73
2021/04/10 10:53:24;;;;;;;7.37;2.33;;;;;;;;;;4331905;33;20199;-74
2021/04/10 10:56:09;;;;;;;10.47;2.50;;;;;;;;;;4331899;33;20218;-74
2021/04/10 10:58:36;;;;;;;12.10;2.87;;;;;;;;;;4332278;33;20155;-73
2021/04/10 11:01:03;;;;;;;7.53;2.80;;;;;;;;;;4331624;33;20159;-73
2021/04/10 11:03:28;;;;;;;10.33;2.60;;;;;;;;;;4332041;33;20149;-74
2021/04/10 11:05:54;;;;;;;7.13;2.40;;;;;;;;;;4332205;33;20170;-74
2021/04/10 11:08:20;;;;;;;9.60;2.70;;;;;;;;;;4331562;33;20159;-73
2021/04/10 11:10:46;;;;;;;8.97;2.60;;;;;;;;;;4329932;33;20521;-74
2021/04/10 11:13:13;;;;;;;6.27;3.00;;;;;;;;;;4332071;33;20136;-74
2021/04/10 11:15:39;;;;;;;8.30;2.43;;;;;;;;;;4331876;33;20174;-73
2021/04/10 11:18:04;;;;;;;8.63;2.70;;;;;;;;;;4331882;33;20562;-73
2021/04/10 11:20:34;;;;;;;9.67;3.27;;;;;;;;;;4331433;33;20162;-73
2021/04/10 11:23:06;;;;;;;6.07;2.50;;;;;;;;;;4331825;33;20195;-73
2021/04/10 11:25:48;;;;;;;10.33;2.80;;;;;;;;;;4332009;33;20144;-73
2021/04/10 11:28:29;;;;;;;11.67;2.77;;;;;;;;;;4330944;33;20230;-73
2021/04/10 11:31:04;;;;;;;8.43;2.40;;;;;;;;;;4331333;33;20167;-73
2021/04/10 11:33:36;;;;;;;6.43;2.10;;;;;;;;;;4331639;33;20136;-71
2021/04/10 11:36:02;;;;;;;6.63;2.47;;;;;;;;;;4332178;33;20174;-75
2021/04/10 11:38:27;;;;;;;11.67;2.73;;;;;;;;;;4331084;33;20590;-74
2021/04/10 11:40:53;;;;;;;6.57;2.27;;;;;;;;;;4331395;33;20236;-73
2021/04/10 11:43:18;;;;;;;9.13;2.80;;;;;;;;;;4331875;33;20148;-73
2021/04/10 11:45:47;;;;;;;14.67;2.70;;;;;;;;;;4331282;33;20546;-70
2021/04/10 11:48:19;;;;;;;8.47;2.57;;;;;;;;;;4330120;33;20194;-74
2021/04/10 11:50:46;;;;;;;6.30;2.07;;;;;;;;;;4331027;33;20194;-72
2021/04/10 11:53:16;;;;;;;9.70;2.50;;;;;;;;;;4331229;33;20657;-73
2021/04/10 11:55:47;;;;;;;7.70;2.23;;;;;;;;;;4331572;33;20594;-74
2021/04/10 11:58:26;;;;;;;8.40;2.50;;;;;;;;;;4330886;33;20151;-72
2021/04/10 12:01:12;;;;;;;7.43;2.23;;;;;;;;;;4331406;33;20182;-73
2021/04/10 12:03:50;;;;;;;4.40;1.97;;;;;;;;;;4331334;33;20167;-72
2021/04/10 12:06:32;;;;;;;6.40;2.20;;;;;;;;;;4331331;33;20140;-71
2021/04/10 12:09:07;;;;;;;8.83;2.60;;;;;;;;;;4330584;33;20187;-73
2021/04/10 12:11:33;;;;;;;8.87;2.37;;;;;;;;;;4330796;33;20278;-73
2021/04/10 12:13:58;;;;;;;9.00;2.67;;;;;;;;;;4331139;33;20136;-74
2021/04/10 12:16:24;;;;;;;8.57;2.47;;;;;;;;;;4330703;33;20171;-72
2021/04/10 12:18:49;;;;;;;9.63;2.90;;;;;;;;;;4330914;33;20660;-72
2021/04/10 12:21:26;;;;;;;6.87;2.40;;;;;;;;;;4331021;33;20135;-74
2021/04/10 12:23:55;;;;;;;7.97;2.50;;;;;;;;;;4331230;33;20166;-74
2021/04/10 12:26:20;;;;;;;5.20;2.60;;;;;;;;;;4330739;33;20139;-75
2021/04/10 12:28:45;;;;;;;10.27;2.43;;;;;;;;;;4330924;33;20467;-76
2021/04/10 12:31:10;;;;;;;12.47;2.63;;;;;;;;;;4331100;33;20139;-76
2021/04/10 12:33:43;;;;;;;7.83;2.20;;;;;;;;;;4327662;33;20202;-75
2021/04/10 12:36:09;;;;;;;7.43;2.40;;;;;;;;;;4328655;33;20148;-75
2021/04/10 12:38:48;;;;;;;7.07;2.43;;;;;;;;;;4321819;33;20266;-75
2021/04/10 12:41:16;;;;;;;9.47;2.60;;;;;;;;;;4321595;33;20198;-75
2021/04/10 12:43:42;;;;;;;10.43;2.93;;;;;;;;;;4304859;33;20195;-75
2021/04/10 12:46:13;;;;;;;11.77;3.37;;;;;;;;;;4324059;33;20179;-77
2021/04/10 12:48:38;;;;;;;7.90;2.27;;;;;;;;;;4316992;33;20190;-75
2021/04/10 12:51:03;;;;;;;9.13;2.77;;;;;;;;;;4319571;33;20195;-75
2021/04/10 12:53:29;;;;;;;9.33;2.27;;;;;;;;;;4314674;33;20183;-75
2021/04/10 12:55:57;;;;;;;6.10;2.20;;;;;;;;;;4320303;33;20501;-75
2021/04/10 12:58:22;;;;;;;8.20;2.63;;;;;;;;;;4324764;33;21000;-75
2021/04/10 13:00:48;;;;;;;5.23;2.30;;;;;;;;;;4315585;33;20143;-74
2021/04/10 13:03:13;;;;;;;6.70;2.40;;;;;;;;;;4316250;33;20205;-75
2021/04/10 13:05:46;;;;;;;7.00;2.30;;;;;;;;;;4315283;33;20190;-76
2021/04/10 13:08:12;;;;;;;7.63;2.50;;;;;;;;;;4319079;33;20198;-75
2021/04/10 13:10:38;;;;;;;6.63;2.30;;;;;;;;;;4317763;33;20605;-76
2021/04/10 13:13:08;;;;;;;9.20;2.50;;;;;;;;;;4315200;33;20225;-76
2021/04/10 13:15:34;;;;;;;7.80;2.63;;;;;;;;;;4319098;33;21070;-75
2021/04/10 13:18:04;;;;;;;9.67;2.90;;;;;;;;;;4281638;33;20255;-77
2021/04/10 13:20:41;;;;;;;10.60;2.33;;;;;;;;;;4266618;33;20994;-75
2021/04/10 13:23:09;;;;;;;8.43;2.33;;;;;;;;;;4266276;33;20194;-77
2021/04/10 13:25:44;;;;;;;7.37;2.70;;;;;;;;;;4263420;33;20461;-76
2021/04/10 13:28:16;;;;;;;6.53;2.47;;;;;;;;;;4259959;33;20194;-77
2021/04/10 13:30:41;;;;;;;8.00;2.43;;;;;;;;;;4257245;33;20152;-75
2021/04/10 13:33:06;;;;;;;13.23;2.60;;;;;;;;;;4257869;33;20160;-75
2021/04/10 13:35:31;;;;;;;6.63;2.80;;;;;;;;;;4262138;33;20212;-75
2021/04/10 13:37:56;;;;;;;7.60;2.70;;;;;;;;;;4263029;33;20156;-76
2021/04/10 13:40:31;;;;;;;8.60;3.10;;;;;;;;;;4264312;33;20562;-76
2021/04/10 13:43:02;;;;;;;7.33;2.90;;;;;;;;;;4266569;33;20178;-76
2021/04/10 13:45:27;;;;;;;8.13;3.33;;;;;;;;;;4268448;33;20152;-77
2021/04/10 13:48:00;;;;;;;10.40;3.40;;;;;;;;;;4263239;33;20625;-76
2021/04/10 13:50:37;;;;;;;12.97;3.90;;;;;;;;;;4261938;33;21219;-76
2021/04/10 13:53:02;;;;;;;12.07;3.00;;;;;;;;;;4277695;33;20653;-79
2021/04/10 13:55:27;;;;;;;8.20;3.20;;;;;;;;;;4265764;33;20183;-75
2021/04/10 13:57:53;;;;;;;6.73;3.63;;;;;;;;;;4270457;33;20731;-75
2021/04/10 14:00:18;;;;;;;8.80;4.17;;;;;;;;;;4265734;33;20140;-75
2021/04/10 14:02:44;;;;;;;12.70;3.60;;;;;;;;;;4266874;33;20171;-77
2021/04/10 14:05:11;;;;;;;14.00;4.03;;;;;;;;;;4263085;33;20175;-75
2021/04/10 14:07:37;;;;;;;12.03;3.70;;;;;;;;;;4265381;33;20148;-77
2021/04/10 14:10:04;;;;;;;13.93;3.77;;;;;;;;;;4266389;33;20171;-76
2021/04/10 14:12:33;;;;;;;10.43;4.20;;;;;;;;;;4263998;33;20983;-74
2021/04/10 14:14:58;;;;;;;12.47;3.73;;;;;;;;;;4260564;33;20636;-75
2021/04/10 14:17:27;;;;;;;11.63;4.13;;;;;;;;;;4270031;33;20187;-72
2021/04/10 14:19:54;;;;;;;8.70;4.20;;;;;;;;;;4262894;33;20196;-75
2021/04/10 14:22:21;;;;;;;11.17;4.17;;;;;;;;;;4269163;33;20152;-76
2021/04/10 14:24:46;;;;;;;9.00;4.33;;;;;;;;;;4264019;33;20198;-76
2021/04/10 14:27:11;;;;;;;16.80;4.60;;;;;;;;;;4265231;33;20656;-75
2021/04/10 14:29:48;;;;;;;12.03;4.90;;;;;;;;;;4263536;33;20651;-73
2021/04/10 14:32:14;;;;;;;13.10;4.80;;;;;;;;;;4262663;33;20183;-75
2021/04/10 14:34:40;;;;;;;9.17;4.93;;;;;;;;;;4262153;33;20136;-75
2021/04/10 14:37:05;;;;;;;11.77;5.50;;;;;;;;;;4260974;33;20140;-76
2021/04/10 14:39:31;;;;;;;14.90;5.33;;;;;;;;;;4260679;33;20182;-74
2021/04/10 14:42:02;;;;;;;12.83;6.03;;;;;;;;;;4263166;33;20585;-72
2021/04/10 14:44:28;;;;;;;14.43;5.43;;;;;;;;;;4253393;33;20236;-75